sensor_id;sensor_type;location;lat;lon;timestamp;P1;durP1;ratioP1;P2;durP2;ratioP2
20611;SDS011;10465;42.686;23.364;2024-01-16T00:00:46;14.15;;;7.53;;
20611;SDS011;10465;42.686;23.364;2024-01-16T00:03:11;14.07;;;7.25;;
20611;SDS011;10465;42.686;23.364;2024-01-16T00:05:37;19.60;;;7.03;;
20611;SDS011;10465;42.686;23.364;2024-01-16T00:08:02;12.98;;;6.47;;
20611;SDS011;10465;42.686;23.364;2024-01-16T00:10:28;13.82;;;7.43;;
20611;SDS011;10465;42.686;23.364;2024-01-16T00:12:53;14.73;;;7.50;;
20611;SDS011;10465;42.686;23.364;2024-01-16T00:15:19;16.65;;;7.63;;
20611;SDS011;10465;42.686;23.364;2024-01-16T00:17:44;12.27;;;6.78;;
20611;SDS011;10465;42.686;23.364;2024-01-16T00:20:10;14.45;;;7.00;;
20611;SDS011;10465;42.686;23.364;2024-01-16T00:22:36;16.05;;;7.10;;
20611;SDS011;10465;42.686;23.364;2024-01-16T00:25:01;12.60;;;7.03;;
20611;SDS011;10465;42.686;23.364;2024-01-16T00:27:27;15.07;;;7.47;;
20611;SDS011;10465;42.686;23.364;2024-01-16T00:29:52;13.93;;;6.75;;
20611;SDS011;10465;42.686;23.364;2024-01-16T00:32:18;14.80;;;6.82;;
20611;SDS011;10465;42.686;23.364;2024-01-16T00:34:43;15.23;;;7.15;;
20611;SDS011;10465;42.686;23.364;2024-01-16T00:37:09;18.15;;;7.82;;
20611;SDS011;10465;42.686;23.364;2024-01-16T00:39:34;14.13;;;7.43;;
20611;SDS011;10465;42.686;23.364;2024-01-16T00:42:00;12.05;;;7.05;;
20611;SDS011;10465;42.686;23.364;2024-01-16T00:44:26;15.95;;;7.90;;
20611;SDS011;10465;42.686;23.364;2024-01-16T00:46:52;18.10;;;9.55;;
20611;SDS011;10465;42.686;23.364;2024-01-16T00:49:17;18.35;;;8.65;;
20611;SDS011;10465;42.686;23.364;2024-01-16T00:51:43;17.85;;;8.80;;
20611;SDS011;10465;42.686;23.364;2024-01-16T00:54:08;19.48;;;9.50;;
20611;SDS011;10465;42.686;23.364;2024-01-16T00:56:35;16.23;;;9.15;;
20611;SDS011;10465;42.686;23.364;2024-01-16T00:59:01;16.90;;;8.57;;
20611;SDS011;10465;42.686;23.364;2024-01-16T01:01:27;18.70;;;8.68;;
20611;SDS011;10465;42.686;23.364;2024-01-16T01:03:52;16.13;;;8.27;;
20611;SDS011;10465;42.686;23.364;2024-01-16T01:06:17;15.43;;;8.15;;
20611;SDS011;10465;42.686;23.364;2024-01-16T01:08:43;14.50;;;7.20;;
20611;SDS011;10465;42.686;23.364;2024-01-16T01:11:08;14.52;;;7.90;;
20611;SDS011;10465;42.686;23.364;2024-01-16T01:13:34;12.68;;;7.95;;
20611;SDS011;10465;42.686;23.364;2024-01-16T01:15:59;17.33;;;8.13;;
20611;SDS011;10465;42.686;23.364;2024-01-16T01:18:25;16.75;;;7.93;;
20611;SDS011;10465;42.686;23.364;2024-01-16T01:20:51;11.90;;;7.30;;
20611;SDS011;10465;42.686;23.364;2024-01-16T01:23:16;15.40;;;8.48;;
20611;SDS011;10465;42.686;23.364;2024-01-16T01:25:42;16.05;;;7.53;;
20611;SDS011;10465;42.686;23.364;2024-01-16T01:28:07;14.57;;;8.38;;
20611;SDS011;10465;42.686;23.364;2024-01-16T01:30:33;15.95;;;8.23;;
20611;SDS011;10465;42.686;23.364;2024-01-16T01:32:58;13.93;;;6.68;;
20611;SDS011;10465;42.686;23.364;2024-01-16T01:35:24;14.10;;;8.10;;
20611;SDS011;10465;42.686;23.364;2024-01-16T01:37:49;14.05;;;7.70;;
20611;SDS011;10465;42.686;23.364;2024-01-16T01:40:15;12.30;;;7.13;;
20611;SDS011;10465;42.686;23.364;2024-01-16T01:42:41;13.95;;;7.65;;
20611;SDS011;10465;42.686;23.364;2024-01-16T01:45:08;17.30;;;7.72;;
20611;SDS011;10465;42.686;23.364;2024-01-16T01:47:37;12.23;;;6.82;;
20611;SDS011;10465;42.686;23.364;2024-01-16T01:50:04;13.60;;;7.28;;
20611;SDS011;10465;42.686;23.364;2024-01-16T01:52:33;12.73;;;6.50;;
20611;SDS011;10465;42.686;23.364;2024-01-16T01:54:58;12.60;;;7.32;;
20611;SDS011;10465;42.686;23.364;2024-01-16T01:57:25;11.57;;;6.15;;
20611;SDS011;10465;42.686;23.364;2024-01-16T01:59:51;13.27;;;7.70;;
20611;SDS011;10465;42.686;23.364;2024-01-16T02:02:17;14.68;;;7.10;;
20611;SDS011;10465;42.686;23.364;2024-01-16T02:04:43;13.10;;;6.95;;
20611;SDS011;10465;42.686;23.364;2024-01-16T02:07:09;13.18;;;7.07;;
20611;SDS011;10465;42.686;23.364;2024-01-16T02:09:35;12.07;;;7.13;;
20611;SDS011;10465;42.686;23.364;2024-01-16T02:12:00;11.70;;;6.88;;
20611;SDS011;10465;42.686;23.364;2024-01-16T02:14:26;14.05;;;7.05;;
20611;SDS011;10465;42.686;23.364;2024-01-16T02:16:52;11.98;;;7.45;;
20611;SDS011;10465;42.686;23.364;2024-01-16T02:19:18;12.30;;;7.03;;
20611;SDS011;10465;42.686;23.364;2024-01-16T02:21:46;13.20;;;7.05;;
20611;SDS011;10465;42.686;23.364;2024-01-16T02:24:13;11.73;;;6.75;;
20611;SDS011;10465;42.686;23.364;2024-01-16T02:26:40;9.40;;;6.07;;
20611;SDS011;10465;42.686;23.364;2024-01-16T02:29:06;9.70;;;6.25;;
20611;SDS011;10465;42.686;23.364;2024-01-16T02:31:35;13.95;;;6.50;;
20611;SDS011;10465;42.686;23.364;2024-01-16T02:34:00;13.50;;;6.47;;
20611;SDS011;10465;42.686;23.364;2024-01-16T02:36:26;11.85;;;6.28;;
20611;SDS011;10465;42.686;23.364;2024-01-16T02:38:52;10.52;;;6.15;;
20611;SDS011;10465;42.686;23.364;2024-01-16T02:41:18;12.20;;;6.93;;
20611;SDS011;10465;42.686;23.364;2024-01-16T02:43:44;14.05;;;6.97;;
20611;SDS011;10465;42.686;23.364;2024-01-16T02:46:09;12.75;;;6.65;;
20611;SDS011;10465;42.686;23.364;2024-01-16T02:48:35;13.02;;;7.20;;
20611;SDS011;10465;42.686;23.364;2024-01-16T02:51:01;11.85;;;6.82;;
20611;SDS011;10465;42.686;23.364;2024-01-16T02:53:28;11.25;;;6.95;;
20611;SDS011;10465;42.686;23.364;2024-01-16T02:55:54;11.82;;;6.90;;
20611;SDS011;10465;42.686;23.364;2024-01-16T02:58:20;12.57;;;7.43;;
20611;SDS011;10465;42.686;23.364;2024-01-16T03:00:46;11.07;;;7.22;;
20611;SDS011;10465;42.686;23.364;2024-01-16T03:03:12;14.60;;;7.10;;
20611;SDS011;10465;42.686;23.364;2024-01-16T03:05:37;11.95;;;6.20;;
20611;SDS011;10465;42.686;23.364;2024-01-16T03:08:03;16.00;;;7.00;;
20611;SDS011;10465;42.686;23.364;2024-01-16T03:10:28;11.20;;;7.05;;
20611;SDS011;10465;42.686;23.364;2024-01-16T03:12:54;10.65;;;7.53;;
20611;SDS011;10465;42.686;23.364;2024-01-16T03:15:19;10.63;;;6.43;;
20611;SDS011;10465;42.686;23.364;2024-01-16T03:17:45;8.45;;;5.53;;
20611;SDS011;10465;42.686;23.364;2024-01-16T03:20:11;10.55;;;5.53;;
20611;SDS011;10465;42.686;23.364;2024-01-16T03:22:36;7.72;;;3.85;;
20611;SDS011;10465;42.686;23.364;2024-01-16T03:25:02;6.97;;;4.10;;
20611;SDS011;10465;42.686;23.364;2024-01-16T03:27:27;4.95;;;3.03;;
20611;SDS011;10465;42.686;23.364;2024-01-16T03:29:53;5.10;;;3.08;;
20611;SDS011;10465;42.686;23.364;2024-01-16T03:32:18;5.55;;;2.25;;
20611;SDS011;10465;42.686;23.364;2024-01-16T03:34:44;4.25;;;2.85;;
20611;SDS011;10465;42.686;23.364;2024-01-16T03:37:09;5.25;;;2.90;;
20611;SDS011;10465;42.686;23.364;2024-01-16T03:39:35;4.22;;;2.85;;
20611;SDS011;10465;42.686;23.364;2024-01-16T03:42:00;5.13;;;3.15;;
20611;SDS011;10465;42.686;23.364;2024-01-16T03:44:26;4.88;;;2.95;;
20611;SDS011;10465;42.686;23.364;2024-01-16T03:46:51;5.72;;;3.13;;
20611;SDS011;10465;42.686;23.364;2024-01-16T03:49:17;5.65;;;3.00;;
20611;SDS011;10465;42.686;23.364;2024-01-16T03:51:42;4.03;;;2.72;;
20611;SDS011;10465;42.686;23.364;2024-01-16T03:54:12;5.43;;;3.08;;
20611;SDS011;10465;42.686;23.364;2024-01-16T03:56:38;4.22;;;2.33;;
20611;SDS011;10465;42.686;23.364;2024-01-16T03:59:04;3.60;;;2.55;;
20611;SDS011;10465;42.686;23.364;2024-01-16T04:01:30;3.90;;;2.28;;
20611;SDS011;10465;42.686;23.364;2024-01-16T04:03:57;3.33;;;2.45;;
20611;SDS011;10465;42.686;23.364;2024-01-16T04:06:22;2.95;;;2.50;;
20611;SDS011;10465;42.686;23.364;2024-01-16T04:08:47;3.33;;;2.25;;
20611;SDS011;10465;42.686;23.364;2024-01-16T04:11:13;2.85;;;2.30;;
20611;SDS011;10465;42.686;23.364;2024-01-16T04:13:39;3.05;;;2.20;;
20611;SDS011;10465;42.686;23.364;2024-01-16T04:16:05;2.97;;;2.00;;
20611;SDS011;10465;42.686;23.364;2024-01-16T04:18:38;2.20;;;2.00;;
20611;SDS011;10465;42.686;23.364;2024-01-16T04:21:05;2.70;;;2.30;;
20611;SDS011;10465;42.686;23.364;2024-01-16T04:23:32;2.75;;;2.05;;
20611;SDS011;10465;42.686;23.364;2024-01-16T04:25:57;2.92;;;1.77;;
20611;SDS011;10465;42.686;23.364;2024-01-16T04:28:23;3.30;;;2.30;;
20611;SDS011;10465;42.686;23.364;2024-01-16T04:30:49;2.88;;;1.67;;
20611;SDS011;10465;42.686;23.364;2024-01-16T04:33:14;2.47;;;1.60;;
20611;SDS011;10465;42.686;23.364;2024-01-16T04:35:40;2.03;;;1.50;;
20611;SDS011;10465;42.686;23.364;2024-01-16T04:38:05;2.35;;;1.67;;
20611;SDS011;10465;42.686;23.364;2024-01-16T04:40:31;1.70;;;1.52;;
20611;SDS011;10465;42.686;23.364;2024-01-16T04:42:56;3.00;;;1.65;;
20611;SDS011;10465;42.686;23.364;2024-01-16T04:45:21;1.90;;;1.40;;
20611;SDS011;10465;42.686;23.364;2024-01-16T04:47:47;3.17;;;1.80;;
20611;SDS011;10465;42.686;23.364;2024-01-16T04:50:12;1.73;;;1.30;;
20611;SDS011;10465;42.686;23.364;2024-01-16T04:52:38;2.03;;;1.30;;
20611;SDS011;10465;42.686;23.364;2024-01-16T04:55:03;1.85;;;1.42;;
20611;SDS011;10465;42.686;23.364;2024-01-16T04:57:29;2.17;;;1.38;;
20611;SDS011;10465;42.686;23.364;2024-01-16T04:59:54;2.42;;;1.48;;
20611;SDS011;10465;42.686;23.364;2024-01-16T05:02:20;2.30;;;1.40;;
20611;SDS011;10465;42.686;23.364;2024-01-16T05:04:45;1.63;;;1.27;;
20611;SDS011;10465;42.686;23.364;2024-01-16T05:07:14;1.67;;;1.15;;
20611;SDS011;10465;42.686;23.364;2024-01-16T05:09:40;1.77;;;1.38;;
20611;SDS011;10465;42.686;23.364;2024-01-16T05:12:05;1.30;;;1.20;;
20611;SDS011;10465;42.686;23.364;2024-01-16T05:14:31;1.42;;;1.23;;
20611;SDS011;10465;42.686;23.364;2024-01-16T05:16:56;1.35;;;1.10;;
20611;SDS011;10465;42.686;23.364;2024-01-16T05:19:22;1.35;;;1.20;;
20611;SDS011;10465;42.686;23.364;2024-01-16T05:21:47;2.25;;;1.45;;
20611;SDS011;10465;42.686;23.364;2024-01-16T05:24:12;1.88;;;1.10;;
20611;SDS011;10465;42.686;23.364;2024-01-16T05:26:38;2.38;;;1.27;;
20611;SDS011;10465;42.686;23.364;2024-01-16T05:29:03;1.83;;;1.33;;
20611;SDS011;10465;42.686;23.364;2024-01-16T05:31:29;3.60;;;1.55;;
20611;SDS011;10465;42.686;23.364;2024-01-16T05:33:54;2.63;;;1.67;;
20611;SDS011;10465;42.686;23.364;2024-01-16T05:36:20;1.30;;;1.20;;
20611;SDS011;10465;42.686;23.364;2024-01-16T05:38:45;1.52;;;1.17;;
20611;SDS011;10465;42.686;23.364;2024-01-16T05:41:11;1.83;;;1.40;;
20611;SDS011;10465;42.686;23.364;2024-01-16T05:43:36;1.77;;;1.13;;
20611;SDS011;10465;42.686;23.364;2024-01-16T05:46:02;2.72;;;1.65;;
20611;SDS011;10465;42.686;23.364;2024-01-16T05:48:27;2.35;;;1.40;;
20611;SDS011;10465;42.686;23.364;2024-01-16T05:50:53;1.85;;;1.50;;
20611;SDS011;10465;42.686;23.364;2024-01-16T05:53:18;1.80;;;1.30;;
20611;SDS011;10465;42.686;23.364;2024-01-16T05:55:44;2.80;;;2.00;;
20611;SDS011;10465;42.686;23.364;2024-01-16T05:58:09;1.48;;;1.20;;
20611;SDS011;10465;42.686;23.364;2024-01-16T06:00:35;2.03;;;1.30;;
20611;SDS011;10465;42.686;23.364;2024-01-16T06:03:00;1.80;;;1.35;;
20611;SDS011;10465;42.686;23.364;2024-01-16T06:05:25;1.85;;;1.40;;
20611;SDS011;10465;42.686;23.364;2024-01-16T06:07:51;1.98;;;1.35;;
20611;SDS011;10465;42.686;23.364;2024-01-16T06:10:17;2.00;;;1.38;;
20611;SDS011;10465;42.686;23.364;2024-01-16T06:12:42;2.50;;;1.30;;
20611;SDS011;10465;42.686;23.364;2024-01-16T06:15:08;2.78;;;1.60;;
20611;SDS011;10465;42.686;23.364;2024-01-16T06:17:36;2.35;;;1.48;;
20611;SDS011;10465;42.686;23.364;2024-01-16T06:20:01;1.70;;;1.17;;
20611;SDS011;10465;42.686;23.364;2024-01-16T06:22:27;1.67;;;1.50;;
20611;SDS011;10465;42.686;23.364;2024-01-16T06:24:53;1.60;;;1.42;;
20611;SDS011;10465;42.686;23.364;2024-01-16T06:27:18;2.35;;;1.25;;
20611;SDS011;10465;42.686;23.364;2024-01-16T06:29:44;1.75;;;1.33;;
20611;SDS011;10465;42.686;23.364;2024-01-16T06:32:10;1.40;;;1.10;;
20611;SDS011;10465;42.686;23.364;2024-01-16T06:34:36;3.22;;;1.50;;
20611;SDS011;10465;42.686;23.364;2024-01-16T06:37:01;2.35;;;1.27;;
20611;SDS011;10465;42.686;23.364;2024-01-16T06:39:27;1.58;;;1.27;;
20611;SDS011;10465;42.686;23.364;2024-01-16T06:41:52;2.30;;;1.20;;
20611;SDS011;10465;42.686;23.364;2024-01-16T06:44:18;1.77;;;1.27;;
20611;SDS011;10465;42.686;23.364;2024-01-16T06:46:44;1.77;;;0.98;;
20611;SDS011;10465;42.686;23.364;2024-01-16T06:49:09;1.52;;;1.27;;
20611;SDS011;10465;42.686;23.364;2024-01-16T06:51:35;1.35;;;1.25;;
20611;SDS011;10465;42.686;23.364;2024-01-16T06:54:00;1.67;;;1.08;;
20611;SDS011;10465;42.686;23.364;2024-01-16T06:56:26;1.20;;;1.10;;
20611;SDS011;10465;42.686;23.364;2024-01-16T06:58:51;1.55;;;1.00;;
20611;SDS011;10465;42.686;23.364;2024-01-16T07:01:17;2.55;;;1.50;;
20611;SDS011;10465;42.686;23.364;2024-01-16T07:03:43;1.40;;;1.10;;
20611;SDS011;10465;42.686;23.364;2024-01-16T07:06:08;1.95;;;1.60;;
20611;SDS011;10465;42.686;23.364;2024-01-16T07:08:35;2.92;;;1.30;;
20611;SDS011;10465;42.686;23.364;2024-01-16T07:11:01;1.73;;;1.23;;
20611;SDS011;10465;42.686;23.364;2024-01-16T07:13:26;1.70;;;1.30;;
20611;SDS011;10465;42.686;23.364;2024-01-16T07:15:52;2.17;;;1.35;;
20611;SDS011;10465;42.686;23.364;2024-01-16T07:18:17;1.40;;;1.30;;
20611;SDS011;10465;42.686;23.364;2024-01-16T07:20:43;2.67;;;1.50;;
20611;SDS011;10465;42.686;23.364;2024-01-16T07:23:10;2.20;;;1.60;;
20611;SDS011;10465;42.686;23.364;2024-01-16T07:25:35;1.67;;;1.30;;
20611;SDS011;10465;42.686;23.364;2024-01-16T07:28:01;4.38;;;1.80;;
20611;SDS011;10465;42.686;23.364;2024-01-16T07:30:27;3.65;;;1.65;;
20611;SDS011;10465;42.686;23.364;2024-01-16T07:32:52;1.70;;;1.30;;
20611;SDS011;10465;42.686;23.364;2024-01-16T07:35:18;1.90;;;1.30;;
20611;SDS011;10465;42.686;23.364;2024-01-16T07:37:44;1.63;;;1.17;;
20611;SDS011;10465;42.686;23.364;2024-01-16T07:40:10;1.92;;;1.33;;
20611;SDS011;10465;42.686;23.364;2024-01-16T07:42:37;2.22;;;1.27;;
20611;SDS011;10465;42.686;23.364;2024-01-16T07:45:03;3.30;;;1.55;;
20611;SDS011;10465;42.686;23.364;2024-01-16T07:47:32;2.53;;;1.75;;
20611;SDS011;10465;42.686;23.364;2024-01-16T07:49:58;2.78;;;1.50;;
20611;SDS011;10465;42.686;23.364;2024-01-16T07:52:23;3.38;;;1.23;;
20611;SDS011;10465;42.686;23.364;2024-01-16T07:54:49;2.25;;;1.45;;
20611;SDS011;10465;42.686;23.364;2024-01-16T07:57:14;1.50;;;1.40;;
20611;SDS011;10465;42.686;23.364;2024-01-16T07:59:40;2.33;;;1.55;;
20611;SDS011;10465;42.686;23.364;2024-01-16T08:02:08;2.33;;;1.42;;
20611;SDS011;10465;42.686;23.364;2024-01-16T08:04:34;2.08;;;1.60;;
20611;SDS011;10465;42.686;23.364;2024-01-16T08:06:59;2.00;;;1.33;;
20611;SDS011;10465;42.686;23.364;2024-01-16T08:09:25;5.35;;;1.77;;
20611;SDS011;10465;42.686;23.364;2024-01-16T08:11:50;2.08;;;1.45;;
20611;SDS011;10465;42.686;23.364;2024-01-16T08:14:16;1.63;;;1.30;;
20611;SDS011;10465;42.686;23.364;2024-01-16T08:16:42;2.05;;;1.30;;
20611;SDS011;10465;42.686;23.364;2024-01-16T08:19:07;1.88;;;1.52;;
20611;SDS011;10465;42.686;23.364;2024-01-16T08:21:33;1.75;;;1.10;;
20611;SDS011;10465;42.686;23.364;2024-01-16T08:23:58;1.20;;;1.10;;
20611;SDS011;10465;42.686;23.364;2024-01-16T08:26:24;1.92;;;1.42;;
20611;SDS011;10465;42.686;23.364;2024-01-16T08:28:49;2.22;;;1.40;;
20611;SDS011;10465;42.686;23.364;2024-01-16T08:31:18;1.75;;;1.20;;
20611;SDS011;10465;42.686;23.364;2024-01-16T08:33:44;2.22;;;1.50;;
20611;SDS011;10465;42.686;23.364;2024-01-16T08:36:10;1.58;;;1.30;;
20611;SDS011;10465;42.686;23.364;2024-01-16T08:38:35;1.70;;;1.13;;
20611;SDS011;10465;42.686;23.364;2024-01-16T08:41:01;2.03;;;1.30;;
20611;SDS011;10465;42.686;23.364;2024-01-16T08:43:28;2.47;;;1.30;;
20611;SDS011;10465;42.686;23.364;2024-01-16T08:45:53;2.67;;;1.60;;
20611;SDS011;10465;42.686;23.364;2024-01-16T08:48:19;1.98;;;1.60;;
20611;SDS011;10465;42.686;23.364;2024-01-16T08:50:44;2.30;;;1.88;;
20611;SDS011;10465;42.686;23.364;2024-01-16T08:53:10;3.85;;;1.23;;
20611;SDS011;10465;42.686;23.364;2024-01-16T08:55:36;2.65;;;1.80;;
20611;SDS011;10465;42.686;23.364;2024-01-16T08:58:01;2.78;;;1.60;;
20611;SDS011;10465;42.686;23.364;2024-01-16T09:00:27;2.70;;;1.48;;
20611;SDS011;10465;42.686;23.364;2024-01-16T09:02:52;2.55;;;1.70;;
20611;SDS011;10465;42.686;23.364;2024-01-16T09:05:18;5.43;;;1.70;;
20611;SDS011;10465;42.686;23.364;2024-01-16T09:07:43;1.65;;;1.50;;
20611;SDS011;10465;42.686;23.364;2024-01-16T09:10:09;1.75;;;1.30;;
20611;SDS011;10465;42.686;23.364;2024-01-16T09:12:35;3.22;;;1.52;;
20611;SDS011;10465;42.686;23.364;2024-01-16T09:15:00;2.63;;;1.50;;
20611;SDS011;10465;42.686;23.364;2024-01-16T09:17:26;2.70;;;1.90;;
20611;SDS011;10465;42.686;23.364;2024-01-16T09:19:52;4.18;;;1.48;;
20611;SDS011;10465;42.686;23.364;2024-01-16T09:22:17;2.03;;;1.58;;
20611;SDS011;10465;42.686;23.364;2024-01-16T09:24:43;2.28;;;1.55;;
20611;SDS011;10465;42.686;23.364;2024-01-16T09:27:08;2.10;;;1.60;;
20611;SDS011;10465;42.686;23.364;2024-01-16T09:29:35;1.92;;;1.40;;
20611;SDS011;10465;42.686;23.364;2024-01-16T09:32:01;2.13;;;1.42;;
20611;SDS011;10465;42.686;23.364;2024-01-16T09:34:26;2.67;;;1.70;;
20611;SDS011;10465;42.686;23.364;2024-01-16T09:36:52;2.45;;;1.48;;
20611;SDS011;10465;42.686;23.364;2024-01-16T09:39:18;3.05;;;1.50;;
20611;SDS011;10465;42.686;23.364;2024-01-16T09:41:46;1.65;;;1.20;;
20611;SDS011;10465;42.686;23.364;2024-01-16T09:44:12;2.40;;;1.60;;
20611;SDS011;10465;42.686;23.364;2024-01-16T09:46:37;2.83;;;1.63;;
20611;SDS011;10465;42.686;23.364;2024-01-16T09:49:08;2.40;;;1.40;;
20611;SDS011;10465;42.686;23.364;2024-01-16T09:51:34;4.03;;;1.88;;
20611;SDS011;10465;42.686;23.364;2024-01-16T09:54:00;1.95;;;1.25;;
20611;SDS011;10465;42.686;23.364;2024-01-16T09:56:27;2.63;;;1.67;;
20611;SDS011;10465;42.686;23.364;2024-01-16T09:58:56;2.10;;;1.67;;
20611;SDS011;10465;42.686;23.364;2024-01-16T10:01:27;3.38;;;1.48;;
20611;SDS011;10465;42.686;23.364;2024-01-16T10:03:54;2.00;;;1.13;;
20611;SDS011;10465;42.686;23.364;2024-01-16T10:06:20;2.17;;;1.80;;
20611;SDS011;10465;42.686;23.364;2024-01-16T10:08:46;1.92;;;1.27;;
20611;SDS011;10465;42.686;23.364;2024-01-16T10:11:11;1.98;;;1.58;;
20611;SDS011;10465;42.686;23.364;2024-01-16T10:13:37;2.33;;;1.63;;
20611;SDS011;10465;42.686;23.364;2024-01-16T10:16:03;3.88;;;2.20;;
20611;SDS011;10465;42.686;23.364;2024-01-16T10:18:29;2.58;;;1.63;;
20611;SDS011;10465;42.686;23.364;2024-01-16T10:20:59;2.85;;;1.75;;
20611;SDS011;10465;42.686;23.364;2024-01-16T10:23:25;2.95;;;1.67;;
20611;SDS011;10465;42.686;23.364;2024-01-16T10:26:12;7.60;;;1.90;;
20611;SDS011;10465;42.686;23.364;2024-01-16T10:28:40;2.25;;;1.25;;
20611;SDS011;10465;42.686;23.364;2024-01-16T10:31:08;2.47;;;1.60;;
20611;SDS011;10465;42.686;23.364;2024-01-16T10:33:35;4.65;;;1.88;;
20611;SDS011;10465;42.686;23.364;2024-01-16T10:38:36;1.80;;;1.45;;
20611;SDS011;10465;42.686;23.364;2024-01-16T10:41:14;1.95;;;1.33;;
20611;SDS011;10465;42.686;23.364;2024-01-16T10:43:42;4.55;;;2.20;;
20611;SDS011;10465;42.686;23.364;2024-01-16T10:46:17;3.97;;;1.77;;
20611;SDS011;10465;42.686;23.364;2024-01-16T10:48:43;3.33;;;1.48;;
20611;SDS011;10465;42.686;23.364;2024-01-16T10:51:11;5.65;;;1.70;;
20611;SDS011;10465;42.686;23.364;2024-01-16T10:53:43;2.83;;;1.75;;
20611;SDS011;10465;42.686;23.364;2024-01-16T10:56:12;2.10;;;1.65;;
20611;SDS011;10465;42.686;23.364;2024-01-16T10:58:40;4.65;;;2.60;;
20611;SDS011;10465;42.686;23.364;2024-01-16T11:01:07;3.63;;;2.00;;
20611;SDS011;10465;42.686;23.364;2024-01-16T11:06:08;1.98;;;1.48;;
20611;SDS011;10465;42.686;23.364;2024-01-16T11:08:37;2.22;;;1.38;;
20611;SDS011;10465;42.686;23.364;2024-01-16T11:11:05;1.85;;;1.42;;
20611;SDS011;10465;42.686;23.364;2024-01-16T11:13:34;3.60;;;1.55;;
20611;SDS011;10465;42.686;23.364;2024-01-16T11:16:00;2.38;;;1.40;;
20611;SDS011;10465;42.686;23.364;2024-01-16T11:18:28;3.45;;;1.70;;
20611;SDS011;10465;42.686;23.364;2024-01-16T11:20:55;2.55;;;1.65;;
20611;SDS011;10465;42.686;23.364;2024-01-16T11:23:22;1.98;;;1.55;;
20611;SDS011;10465;42.686;23.364;2024-01-16T11:25:48;3.75;;;1.80;;
20611;SDS011;10465;42.686;23.364;2024-01-16T11:28:14;3.33;;;2.15;;
20611;SDS011;10465;42.686;23.364;2024-01-16T11:30:41;3.95;;;2.00;;
20611;SDS011;10465;42.686;23.364;2024-01-16T11:35:56;2.78;;;1.90;;
20611;SDS011;10465;42.686;23.364;2024-01-16T11:45:58;2.47;;;1.40;;
20611;SDS011;10465;42.686;23.364;2024-01-16T11:48:24;2.65;;;1.55;;
20611;SDS011;10465;42.686;23.364;2024-01-16T11:50:50;2.00;;;1.50;;
20611;SDS011;10465;42.686;23.364;2024-01-16T11:53:35;3.13;;;1.80;;
20611;SDS011;10465;42.686;23.364;2024-01-16T12:02:23;3.00;;;1.83;;
20611;SDS011;10465;42.686;23.364;2024-01-16T12:04:54;2.75;;;1.85;;
20611;SDS011;10465;42.686;23.364;2024-01-16T12:07:28;3.90;;;1.98;;
20611;SDS011;10465;42.686;23.364;2024-01-16T12:09:58;4.03;;;2.13;;
20611;SDS011;10465;42.686;23.364;2024-01-16T12:12:25;2.88;;;1.85;;
20611;SDS011;10465;42.686;23.364;2024-01-16T12:14:51;1.95;;;1.40;;
20611;SDS011;10465;42.686;23.364;2024-01-16T12:17:20;4.68;;;2.00;;
20611;SDS011;10465;42.686;23.364;2024-01-16T12:19:45;4.32;;;2.00;;
20611;SDS011;10465;42.686;23.364;2024-01-16T12:22:15;3.63;;;1.98;;
20611;SDS011;10465;42.686;23.364;2024-01-16T12:24:41;2.60;;;1.63;;
20611;SDS011;10465;42.686;23.364;2024-01-16T12:27:07;5.80;;;1.90;;
20611;SDS011;10465;42.686;23.364;2024-01-16T12:29:34;3.50;;;1.92;;
20611;SDS011;10465;42.686;23.364;2024-01-16T12:32:09;2.40;;;1.60;;
20611;SDS011;10465;42.686;23.364;2024-01-16T12:34:42;3.60;;;1.77;;
20611;SDS011;10465;42.686;23.364;2024-01-16T12:37:10;5.22;;;1.95;;
20611;SDS011;10465;42.686;23.364;2024-01-16T12:39:36;2.38;;;1.38;;
20611;SDS011;10465;42.686;23.364;2024-01-16T12:42:02;3.40;;;1.40;;
20611;SDS011;10465;42.686;23.364;2024-01-16T12:44:28;2.92;;;1.70;;
20611;SDS011;10465;42.686;23.364;2024-01-16T12:46:54;5.80;;;2.30;;
20611;SDS011;10465;42.686;23.364;2024-01-16T12:49:21;3.05;;;1.75;;
20611;SDS011;10465;42.686;23.364;2024-01-16T12:51:47;3.65;;;1.67;;
20611;SDS011;10465;42.686;23.364;2024-01-16T12:54:14;2.35;;;1.65;;
20611;SDS011;10465;42.686;23.364;2024-01-16T12:56:42;4.63;;;2.15;;
20611;SDS011;10465;42.686;23.364;2024-01-16T12:59:11;3.50;;;2.03;;
20611;SDS011;10465;42.686;23.364;2024-01-16T13:01:39;3.67;;;1.98;;
20611;SDS011;10465;42.686;23.364;2024-01-16T13:04:06;3.28;;;1.90;;
20611;SDS011;10465;42.686;23.364;2024-01-16T13:06:32;4.03;;;1.85;;
20611;SDS011;10465;42.686;23.364;2024-01-16T13:09:08;4.80;;;2.13;;
20611;SDS011;10465;42.686;23.364;2024-01-16T13:14:29;3.72;;;1.70;;
20611;SDS011;10465;42.686;23.364;2024-01-16T13:16:55;2.35;;;1.52;;
20611;SDS011;10465;42.686;23.364;2024-01-16T13:19:21;2.53;;;1.60;;
20611;SDS011;10465;42.686;23.364;2024-01-16T13:21:47;2.38;;;1.42;;
20611;SDS011;10465;42.686;23.364;2024-01-16T13:24:15;4.68;;;1.85;;
20611;SDS011;10465;42.686;23.364;2024-01-16T13:26:42;3.03;;;1.58;;
20611;SDS011;10465;42.686;23.364;2024-01-16T13:29:08;3.10;;;1.77;;
20611;SDS011;10465;42.686;23.364;2024-01-16T13:31:34;2.60;;;1.63;;
20611;SDS011;10465;42.686;23.364;2024-01-16T13:33:59;2.45;;;1.70;;
20611;SDS011;10465;42.686;23.364;2024-01-16T13:36:25;3.92;;;1.90;;
20611;SDS011;10465;42.686;23.364;2024-01-16T13:38:51;2.40;;;1.60;;
20611;SDS011;10465;42.686;23.364;2024-01-16T13:41:16;4.45;;;2.17;;
20611;SDS011;10465;42.686;23.364;2024-01-16T13:43:42;2.90;;;1.85;;
20611;SDS011;10465;42.686;23.364;2024-01-16T13:46:07;3.08;;;1.77;;
20611;SDS011;10465;42.686;23.364;2024-01-16T13:48:36;3.03;;;1.85;;
20611;SDS011;10465;42.686;23.364;2024-01-16T13:51:01;5.25;;;2.15;;
20611;SDS011;10465;42.686;23.364;2024-01-16T13:53:29;3.70;;;2.45;;
20611;SDS011;10465;42.686;23.364;2024-01-16T13:55:54;2.70;;;1.85;;
20611;SDS011;10465;42.686;23.364;2024-01-16T13:58:20;3.88;;;2.08;;
20611;SDS011;10465;42.686;23.364;2024-01-16T14:00:45;5.20;;;1.80;;
20611;SDS011;10465;42.686;23.364;2024-01-16T14:03:11;2.80;;;1.77;;
20611;SDS011;10465;42.686;23.364;2024-01-16T14:05:36;3.17;;;1.60;;
20611;SDS011;10465;42.686;23.364;2024-01-16T14:08:02;3.33;;;1.52;;
20611;SDS011;10465;42.686;23.364;2024-01-16T14:10:27;6.72;;;2.05;;
20611;SDS011;10465;42.686;23.364;2024-01-16T14:12:55;3.47;;;1.92;;
20611;SDS011;10465;42.686;23.364;2024-01-16T14:15:21;3.88;;;1.80;;
20611;SDS011;10465;42.686;23.364;2024-01-16T14:17:54;2.75;;;1.70;;
20611;SDS011;10465;42.686;23.364;2024-01-16T14:20:20;5.50;;;2.22;;
20611;SDS011;10465;42.686;23.364;2024-01-16T14:22:51;4.97;;;2.30;;
20611;SDS011;10465;42.686;23.364;2024-01-16T14:25:17;2.88;;;2.17;;
20611;SDS011;10465;42.686;23.364;2024-01-16T14:27:45;2.92;;;2.05;;
20611;SDS011;10465;42.686;23.364;2024-01-16T14:30:14;3.67;;;1.98;;
20611;SDS011;10465;42.686;23.364;2024-01-16T14:32:41;3.58;;;2.17;;
20611;SDS011;10465;42.686;23.364;2024-01-16T14:35:10;3.78;;;2.08;;
20611;SDS011;10465;42.686;23.364;2024-01-16T14:37:38;3.20;;;1.95;;
20611;SDS011;10465;42.686;23.364;2024-01-16T14:40:05;4.18;;;2.10;;
20611;SDS011;10465;42.686;23.364;2024-01-16T14:42:50;4.60;;;2.15;;
20611;SDS011;10465;42.686;23.364;2024-01-16T14:45:18;3.92;;;2.53;;
20611;SDS011;10465;42.686;23.364;2024-01-16T14:47:46;3.03;;;1.92;;
20611;SDS011;10465;42.686;23.364;2024-01-16T14:50:11;5.18;;;2.10;;